Terminal Aerodrome Forecast
Issued by NWS

Home | Current Version | Previous Version | Text Only | Print | Product List | Glossary On
Versions: 1 2 3 4 5 6 7 8 9 10 11 12 13 14 15 16 17 18 19 20 21
000
FTUS44 KLZK 220745 AAA
TAFHOT
TAF AMD
KHOT 220745Z 2208/2306 29009KT P6SM -RA FEW035 BKN060 BKN080
     FM221000 22015G25KT P6SM VCSH SCT025 BKN050
     FM221400 22013G19KT P6SM SCT025 BKN250
     FM221800 26015G25KT P6SM SCT250=

USA.gov is the U.S. government's official web portal to all federal, state and local government web resources and services.